createdAt,value
2018-07-24T00:01:45.248Z,100940.09
2018-07-24T00:03:50.041Z,100934.42
2018-07-24T00:05:54.903Z,100932.65
2018-07-24T00:07:59.627Z,100929.15
2018-07-24T00:10:04.873Z,100861.09
2018-07-24T00:12:09.889Z,100924.78
2018-07-24T00:14:14.638Z,100935.63
2018-07-24T00:16:19.297Z,100932.57
2018-07-24T00:18:23.965Z,100922.57
2018-07-24T00:20:28.909Z,100928.21
2018-07-24T00:22:33.748Z,100926.47
2018-07-24T00:24:38.542Z,100923.41
2018-07-24T00:26:43.253Z,100929.45
2018-07-24T00:28:47.922Z,100921.17
2018-07-24T00:30:52.596Z,100918.55
2018-07-24T00:32:57.290Z,100922.02
2018-07-24T00:35:01.972Z,100923.73
2018-07-24T00:37:06.910Z,100916.34
2018-07-24T00:39:11.671Z,100914.16
2018-07-24T00:41:16.452Z,100915.89
2018-07-24T00:43:21.151Z,100913.27
2018-07-24T00:45:25.842Z,100914.58
2018-07-24T00:47:30.480Z,100913.69
2018-07-24T00:49:35.313Z,100914.09
2018-07-24T00:51:40.131Z,100913.22
2018-07-24T00:53:44.939Z,100911.05
2018-07-24T00:55:49.656Z,100910.61
2018-07-24T00:57:54.436Z,100908.88
2018-07-24T00:59:59.177Z,100908.03
2018-07-24T01:02:03.917Z,100908.45
2018-07-24T01:04:08.698Z,100905.83
2018-07-24T01:06:13.514Z,100908.41
2018-07-24T01:08:18.267Z,100900.57
2018-07-24T01:10:22.928Z,100901.87
2018-07-24T01:12:27.667Z,100905.78
2018-07-24T01:14:32.657Z,100905.76
2018-07-24T01:16:37.433Z,100901.84
2018-07-24T01:18:42.068Z,100901.39
2018-07-24T01:20:46.857Z,100897.02
2018-07-24T01:22:51.482Z,100900.05
2018-07-24T01:24:56.224Z,100900.05
2018-07-24T01:27:00.898Z,100892.61
2018-07-24T01:29:05.548Z,100896.93
2018-07-24T01:31:10.228Z,100897.35
2018-07-24T01:33:14.928Z,100895.55
2018-07-24T01:35:19.616Z,100895.09
2018-07-24T01:37:24.321Z,100893.38
2018-07-24T01:39:29.042Z,100889.88
2018-07-24T01:41:33.761Z,100889.45
2018-07-24T01:43:38.503Z,100885.97
2018-07-24T01:45:43.182Z,100886.84
2018-07-24T01:47:47.886Z,100892.48
2018-07-24T01:49:52.625Z,100893.34
2018-07-24T01:51:57.698Z,100892.03
2018-07-24T01:54:02.390Z,100890.70
2018-07-24T01:56:07.110Z,100886.80
2018-07-24T01:58:11.485Z,100886.34
2018-07-24T02:00:17.954Z,100888.09
2018-07-24T02:02:22.745Z,100882.45
2018-07-24T02:04:27.641Z,100882.86
2018-07-24T02:06:32.389Z,100875.46
2018-07-24T02:08:37.075Z,100878.92
2018-07-24T02:10:41.801Z,100882.39
2018-07-24T02:12:46.512Z,100880.20
2018-07-24T02:14:51.154Z,100868.41
2018-07-24T02:16:55.825Z,100873.66
2018-07-24T02:19:00.472Z,100871.92
2018-07-24T02:21:05.439Z,100874.97
2018-07-24T02:23:10.191Z,100872.36
2018-07-24T02:25:14.993Z,100874.10
2018-07-24T02:27:19.787Z,100875.84
2018-07-24T02:29:24.465Z,100879.75
2018-07-24T02:31:29.274Z,100882.34
2018-07-24T02:33:33.959Z,100877.98
2018-07-24T02:35:38.971Z,100881.00
2018-07-24T02:37:43.685Z,100877.10
2018-07-24T02:39:48.326Z,100879.70
2018-07-24T02:41:52.988Z,100875.81
2018-07-24T02:43:57.692Z,100878.84
2018-07-24T02:46:02.332Z,100880.55
2018-07-24T02:48:07.081Z,100876.58
2018-07-24T02:50:11.776Z,100874.84
2018-07-24T02:52:16.453Z,100880.52
2018-07-24T02:54:21.123Z,100880.49
2018-07-24T02:56:25.842Z,100881.78
2018-07-24T02:58:30.553Z,100881.76
2018-07-24T03:00:35.238Z,100880.00
2018-07-24T03:02:39.920Z,100886.50
2018-07-24T03:04:44.780Z,100884.72
2018-07-24T03:06:49.635Z,100885.20
2018-07-24T03:08:54.333Z,100879.98
2018-07-24T03:10:59.069Z,100879.11
2018-07-24T03:13:03.702Z,100884.77
2018-07-24T03:15:08.367Z,100880.84
2018-07-24T03:17:13.055Z,100876.05
2018-07-24T03:19:17.757Z,100881.66
2018-07-24T03:21:22.483Z,100877.31
2018-07-24T03:23:27.121Z,100874.22
2018-07-24T03:25:31.834Z,100877.67
2018-07-24T03:27:36.645Z,100875.94
2018-07-24T03:29:41.338Z,100874.19
2018-07-24T03:31:46.111Z,100878.97
2018-07-24T03:33:50.896Z,100875.91
2018-07-24T03:35:55.687Z,100875.47
2018-07-24T03:38:00.308Z,100873.72
2018-07-24T03:40:05.093Z,100878.06
2018-07-24T03:42:09.974Z,100877.20
2018-07-24T03:44:14.645Z,100878.06
2018-07-24T03:46:19.387Z,100876.33
2018-07-24T03:48:24.130Z,100878.92
2018-07-24T03:50:28.901Z,100885.00
2018-07-24T03:52:33.627Z,100878.95
2018-07-24T03:54:38.283Z,100878.50
2018-07-24T03:56:42.931Z,100882.83
2018-07-24T03:58:47.611Z,100882.83
2018-07-24T04:00:52.285Z,100878.05
2018-07-24T04:02:56.972Z,100883.72
2018-07-24T04:05:01.767Z,100881.93
2018-07-24T04:07:06.585Z,100876.16
2018-07-24T04:09:11.785Z,100822.05
2018-07-24T04:11:16.715Z,100883.55
2018-07-24T04:13:21.505Z,100889.23
2018-07-24T04:15:26.281Z,100881.41
2018-07-24T04:17:34.102Z,100880.96
2018-07-24T04:19:39.298Z,100883.59
2018-07-24T04:21:44.189Z,100884.91
2018-07-24T04:23:49.690Z,100883.22
2018-07-24T04:25:54.557Z,100885.82
2018-07-24T04:27:59.353Z,100884.95
2018-07-24T04:30:04.331Z,100879.33
2018-07-24T04:32:09.077Z,100880.23
2018-07-24T04:34:13.877Z,100881.95
2018-07-24T04:36:18.661Z,100880.69
2018-07-24T04:38:23.031Z,100881.58
2018-07-24T04:40:27.797Z,100879.86
2018-07-24T04:42:32.533Z,100878.53
2018-07-24T04:44:37.171Z,100881.10
2018-07-24T04:46:41.524Z,100875.49
2018-07-24T04:48:46.861Z,100876.35
2018-07-24T04:50:51.553Z,100871.16
2018-07-24T04:52:55.993Z,100875.08
2018-07-24T04:55:00.804Z,100876.88
2018-07-24T04:57:05.994Z,100872.50
2018-07-24T04:59:10.836Z,100869.97
2018-07-24T05:01:15.707Z,100879.55
2018-07-24T05:03:20.722Z,100879.58
2018-07-24T05:05:25.374Z,100880.02
2018-07-24T05:07:30.131Z,100880.49
2018-07-24T05:09:34.828Z,100880.52
2018-07-24T05:11:39.470Z,100884.45
2018-07-24T05:13:44.255Z,100883.15
2018-07-24T05:15:48.988Z,100880.55
2018-07-24T05:17:53.838Z,100881.00
2018-07-24T05:19:58.616Z,100881.02
2018-07-24T05:22:03.612Z,100880.59
2018-07-24T05:24:08.748Z,100877.57
2018-07-24T05:26:13.581Z,100877.14
2018-07-24T05:28:18.407Z,100884.09
2018-07-24T05:30:23.500Z,100884.57
2018-07-24T05:32:28.417Z,100881.53
2018-07-24T05:34:33.202Z,100883.28
2018-07-24T05:36:38.980Z,100885.48
2018-07-24T05:38:43.716Z,100889.84
2018-07-24T05:40:48.543Z,100885.97
2018-07-24T05:42:53.693Z,100880.78
2018-07-24T05:44:59.170Z,100885.58
2018-07-24T05:47:03.996Z,100884.34
2018-07-24T05:49:08.950Z,100885.69
2018-07-24T05:51:13.768Z,100888.78
2018-07-24T05:53:19.090Z,100882.71
2018-07-24T05:55:24.016Z,100882.73
2018-07-24T05:57:29.025Z,100884.06
2018-07-24T05:59:34.493Z,100884.95
2018-07-24T06:01:39.386Z,100881.50
2018-07-24T06:03:44.093Z,100881.95
2018-07-24T06:05:48.757Z,100883.27
2018-07-24T06:07:53.545Z,100885.46
2018-07-24T06:09:58.552Z,100875.92
2018-07-24T06:12:03.338Z,100880.72
2018-07-24T06:14:08.179Z,100879.00
2018-07-24T06:16:13.642Z,100883.41
2018-07-24T06:18:18.398Z,100884.30
2018-07-24T06:20:23.115Z,100886.59
2018-07-24T06:22:27.965Z,100887.92
2018-07-24T06:24:32.662Z,100889.23
2018-07-24T06:26:37.576Z,100885.77
2018-07-24T06:28:42.063Z,100889.68
2018-07-24T06:30:46.810Z,100886.21
2018-07-24T06:32:51.573Z,100887.14
2018-07-24T06:34:56.335Z,100885.34
2018-07-24T06:37:01.201Z,100889.27
2018-07-24T06:39:11.262Z,100884.91
2018-07-24T06:41:16.013Z,100888.43
2018-07-24T06:43:20.762Z,100890.62
2018-07-24T06:45:25.741Z,100892.37
2018-07-24T06:47:32.996Z,100890.20
2018-07-24T06:49:37.686Z,100891.50
2018-07-24T06:51:42.806Z,100889.77
2018-07-24T06:53:47.524Z,100887.59
2018-07-24T06:55:52.418Z,100898.05
2018-07-24T06:57:57.209Z,100892.39
2018-07-24T07:00:02.182Z,100890.69
2018-07-24T07:02:07.187Z,100893.73
2018-07-24T07:04:11.950Z,100887.20
2018-07-24T07:06:16.779Z,100889.38
2018-07-24T07:08:22.312Z,100887.23
2018-07-24T07:10:27.022Z,100878.08
2018-07-24T07:12:31.863Z,100882.42
2018-07-24T07:14:36.552Z,100880.24
2018-07-24T07:16:41.273Z,100883.28
2018-07-24T07:18:46.145Z,100882.38
2018-07-24T07:20:51.170Z,100886.31
2018-07-24T07:22:56.911Z,100882.80
2018-07-24T07:25:01.955Z,100877.13
2018-07-24T07:27:06.879Z,100876.69
2018-07-24T07:29:11.708Z,100881.04
2018-07-24T07:31:18.038Z,100882.77
2018-07-24T07:33:23.010Z,100877.08
2018-07-24T07:35:27.832Z,100880.09
2018-07-24T07:37:32.973Z,100883.05
2018-07-24T07:39:38.022Z,100882.14
2018-07-24T07:41:42.766Z,100882.97
2018-07-24T07:43:47.821Z,100883.83
2018-07-24T07:45:52.562Z,100885.08
2018-07-24T07:47:57.226Z,100881.17
2018-07-24T07:50:02.026Z,100881.14
2018-07-24T07:52:06.839Z,100872.78
2018-07-24T07:54:11.535Z,100859.27
2018-07-24T07:56:16.421Z,100867.94
2018-07-24T07:58:21.338Z,100876.20
2018-07-24T08:00:26.231Z,100885.33
2018-07-24T08:02:31.223Z,100875.27
2018-07-24T08:04:36.007Z,100865.60
2018-07-24T08:06:46.156Z,100877.30
2018-07-24T08:08:51.666Z,100871.67
2018-07-24T08:10:56.439Z,100875.09
2018-07-24T08:13:01.264Z,100870.25
2018-07-24T08:15:06.093Z,100871.52
2018-07-24T08:17:11.078Z,100867.53
2018-07-24T08:19:15.728Z,100867.91
2018-07-24T08:21:20.518Z,100868.72
2018-07-24T08:23:25.369Z,100865.66
2018-07-24T08:25:30.384Z,100870.86
2018-07-24T08:27:35.518Z,100865.55
2018-07-24T08:29:40.237Z,100864.52
2018-07-24T08:31:45.183Z,100859.41
2018-07-24T08:33:49.893Z,100862.98
2018-07-24T08:35:55.015Z,100867.27
2018-07-24T08:37:59.706Z,100867.50
2018-07-24T08:40:04.540Z,100860.00
2018-07-24T08:42:09.281Z,100870.48
2018-07-24T08:44:14.322Z,100862.02
2018-07-24T08:46:19.170Z,100862.80
2018-07-24T08:48:23.926Z,100865.83
2018-07-24T08:50:28.836Z,100865.86
2018-07-24T08:52:33.639Z,100859.50
2018-07-24T08:54:38.724Z,100866.88
2018-07-24T08:56:43.109Z,100865.56
2018-07-24T08:58:47.833Z,100863.44
2018-07-24T09:00:52.506Z,100855.95
2018-07-24T09:02:57.265Z,100855.45
2018-07-24T09:05:01.948Z,100858.90
2018-07-24T09:07:06.668Z,100860.14
2018-07-24T09:09:12.561Z,100844.06
2018-07-24T09:11:17.246Z,100856.08
2018-07-24T09:13:21.904Z,100852.66
2018-07-24T09:15:26.653Z,100850.87
2018-07-24T09:17:31.315Z,100854.69
2018-07-24T09:19:36.027Z,100846.80
2018-07-24T09:21:45.004Z,100854.66
2018-07-24T09:23:49.799Z,100862.00
2018-07-24T09:25:54.533Z,100862.36
2018-07-24T09:27:59.217Z,100858.89
2018-07-24T09:30:04.287Z,100863.61
2018-07-24T09:32:09.714Z,100858.89
2018-07-24T09:34:16.369Z,100859.36
2018-07-24T09:36:21.129Z,100862.05
2018-07-24T09:38:25.874Z,100855.27
2018-07-24T09:40:30.908Z,100858.41
2018-07-24T09:42:35.686Z,100854.46
2018-07-24T09:44:40.367Z,100857.48
2018-07-24T09:46:45.160Z,100857.83
2018-07-24T09:48:50.586Z,100856.77
2018-07-24T09:50:55.292Z,100853.20
2018-07-24T09:53:00.074Z,100855.10
2018-07-24T09:55:05.070Z,100851.77
2018-07-24T09:57:09.754Z,100854.75
2018-07-24T09:59:14.602Z,100840.84
2018-07-24T10:01:24.565Z,100853.50
2018-07-24T10:03:29.285Z,100846.87
2018-07-24T10:05:33.996Z,100849.37
2018-07-24T10:07:38.962Z,100844.70
2018-07-24T10:09:43.673Z,100836.20
2018-07-24T10:11:48.376Z,100841.47
2018-07-24T10:13:53.180Z,100836.83
2018-07-24T10:15:57.464Z,100828.92
2018-07-24T10:18:02.339Z,100829.50
2018-07-24T10:20:07.372Z,100827.86
2018-07-24T10:22:12.042Z,100827.41
2018-07-24T10:24:16.834Z,100820.89
2018-07-24T10:26:21.533Z,100820.48
2018-07-24T10:28:26.447Z,100813.63
2018-07-24T10:30:31.261Z,100809.34
2018-07-24T10:32:36.265Z,100803.98
2018-07-24T10:34:41.065Z,100800.56
2018-07-24T10:36:46.043Z,100803.16
2018-07-24T10:38:50.922Z,100805.96
2018-07-24T10:40:55.731Z,100803.65
2018-07-24T10:43:00.549Z,100802.61
2018-07-24T10:45:05.472Z,100801.64
2018-07-24T10:47:10.181Z,100802.60
2018-07-24T10:49:15.048Z,100803.69
2018-07-24T10:51:19.782Z,100798.50
2018-07-24T10:53:24.710Z,100793.09
2018-07-24T10:55:29.469Z,100793.72
2018-07-24T10:57:34.218Z,100789.30
2018-07-24T10:59:38.992Z,100783.80
2018-07-24T11:01:43.824Z,100784.52
2018-07-24T11:03:48.779Z,100779.61
2018-07-24T11:05:53.720Z,100777.88
2018-07-24T11:07:58.590Z,100769.69
2018-07-24T11:10:03.424Z,100778.38
2018-07-24T11:12:08.508Z,100786.08
2018-07-24T11:14:13.206Z,100777.52
2018-07-24T11:16:18.179Z,100776.06
2018-07-24T11:18:22.919Z,100779.42
2018-07-24T11:20:27.652Z,100771.72
2018-07-24T11:22:33.021Z,100771.91
2018-07-24T11:24:38.224Z,100772.64
2018-07-24T11:26:43.516Z,100766.13
2018-07-24T11:28:48.194Z,100765.13
2018-07-24T11:30:52.876Z,100765.49
2018-07-24T11:32:57.770Z,100765.12
2018-07-24T11:35:02.555Z,100772.70
2018-07-24T11:37:07.408Z,100769.95
2018-07-24T11:39:12.593Z,100763.14
2018-07-24T11:41:17.427Z,100756.55
2018-07-24T11:43:22.352Z,100765.23
2018-07-24T11:45:27.188Z,100763.91
2018-07-24T11:47:32.098Z,100760.36
2018-07-24T11:49:36.855Z,100762.70
2018-07-24T11:51:41.721Z,100761.78
2018-07-24T11:53:46.432Z,100769.26
2018-07-24T11:55:51.143Z,100764.02
2018-07-24T11:57:56.216Z,100752.88
2018-07-24T12:00:01.550Z,100752.47
2018-07-24T12:02:06.633Z,100749.68
2018-07-24T12:04:11.712Z,100747.03
2018-07-24T12:06:16.796Z,100749.42
2018-07-24T12:08:21.797Z,100744.11
2018-07-24T12:10:26.702Z,100748.20
2018-07-24T12:12:31.470Z,100742.86
2018-07-24T12:14:36.290Z,100743.86
2018-07-24T12:16:41.605Z,100731.95
2018-07-24T12:18:46.482Z,100737.11
2018-07-24T12:20:51.224Z,100731.59
2018-07-24T12:22:56.219Z,100735.54
2018-07-24T12:25:01.126Z,100740.62
2018-07-24T12:27:06.301Z,100733.25
2018-07-24T12:29:11.390Z,100729.15
2018-07-24T12:31:16.195Z,100730.47
2018-07-24T12:33:21.254Z,100729.80
2018-07-24T12:35:26.021Z,100733.59
2018-07-24T12:37:32.622Z,100734.12
2018-07-24T12:39:37.371Z,100730.15
2018-07-24T12:41:42.045Z,100730.91
2018-07-24T12:43:46.820Z,100727.66
2018-07-24T12:45:51.751Z,100719.71
2018-07-24T12:47:56.639Z,100716.83
2018-07-24T12:50:01.501Z,100724.25
2018-07-24T12:52:06.613Z,100720.90
2018-07-24T12:54:12.026Z,100719.77
2018-07-24T12:56:16.942Z,100715.67
2018-07-24T12:58:21.805Z,100713.81
2018-07-24T13:00:26.661Z,100710.08
2018-07-24T13:02:31.765Z,100714.52
2018-07-24T13:04:36.602Z,100713.07
2018-07-24T13:06:41.864Z,100719.02
2018-07-24T13:08:46.802Z,100708.25
2018-07-24T13:10:51.705Z,100712.69
2018-07-24T13:12:56.714Z,100710.97
2018-07-24T13:15:02.337Z,100705.36
2018-07-24T13:17:07.481Z,100706.65
2018-07-24T13:19:12.388Z,100713.83
2018-07-24T13:21:17.301Z,100702.30
2018-07-24T13:23:22.051Z,100706.46
2018-07-24T13:25:29.072Z,100696.97
2018-07-24T13:27:33.939Z,100705.37
2018-07-24T13:29:38.892Z,100695.53
2018-07-24T13:31:43.770Z,100693.20
2018-07-24T13:33:48.859Z,100694.27
2018-07-24T13:35:53.790Z,100693.86
2018-07-24T13:37:58.490Z,100690.61
2018-07-24T13:40:03.262Z,100690.70
2018-07-24T13:42:08.113Z,100696.58
2018-07-24T13:44:12.949Z,100687.18
2018-07-24T13:46:18.067Z,100687.04
2018-07-24T13:48:23.522Z,100690.63
2018-07-24T13:50:28.512Z,100685.98
2018-07-24T13:52:33.939Z,100682.40
2018-07-24T13:54:38.856Z,100681.47
2018-07-24T13:56:44.022Z,100693.19
2018-07-24T13:58:48.838Z,100685.89
2018-07-24T14:00:54.005Z,100684.70
2018-07-24T14:02:58.901Z,100683.33
2018-07-24T14:05:03.725Z,100683.03
2018-07-24T14:07:09.006Z,100681.78
2018-07-24T14:09:13.781Z,100674.75
2018-07-24T14:11:18.715Z,100685.75
2018-07-24T14:13:23.574Z,100685.64
2018-07-24T14:15:28.370Z,100677.86
2018-07-24T14:17:33.504Z,100669.81
2018-07-24T14:19:38.379Z,100665.70
2018-07-24T14:21:43.355Z,100673.41
2018-07-24T14:23:48.463Z,100666.55
2018-07-24T14:25:54.130Z,100666.18
2018-07-24T14:27:59.429Z,100660.38
2018-07-24T14:30:04.532Z,100661.52
2018-07-24T14:32:09.572Z,100660.86
2018-07-24T14:34:14.448Z,100655.66
2018-07-24T14:36:19.545Z,100661.75
2018-07-24T14:38:24.582Z,100657.72
2018-07-24T14:40:29.602Z,100655.84
2018-07-24T14:42:34.365Z,100652.34
2018-07-24T14:44:39.292Z,100656.23
2018-07-24T14:46:44.025Z,100653.12
2018-07-24T14:48:49.320Z,100650.39
2018-07-24T14:50:54.211Z,100653.66
2018-07-24T14:52:59.183Z,100650.08
2018-07-24T14:55:04.105Z,100647.28
2018-07-24T14:57:09.032Z,100652.72
2018-07-24T14:59:14.193Z,100654.05
2018-07-24T15:01:19.735Z,100649.02
2018-07-24T15:03:24.794Z,100647.48
2018-07-24T15:05:29.631Z,100653.05
2018-07-24T15:07:36.835Z,100652.47
2018-07-24T15:09:41.682Z,100652.98
2018-07-24T15:11:49.365Z,100645.69
2018-07-24T15:13:54.311Z,100644.09
2018-07-24T15:15:59.387Z,100640.78
2018-07-24T15:18:04.161Z,100646.89
2018-07-24T15:20:09.094Z,100640.64
2018-07-24T15:22:13.885Z,100640.38
2018-07-24T15:24:19.198Z,100639.20
2018-07-24T15:26:24.886Z,100631.89
2018-07-24T15:28:29.739Z,100633.28
2018-07-24T15:30:34.521Z,100639.57
2018-07-24T15:32:39.412Z,100631.89
2018-07-24T15:34:44.842Z,100632.89
2018-07-24T15:36:51.030Z,100626.19
2018-07-24T15:38:55.824Z,100622.24
2018-07-24T15:41:00.537Z,100623.53
2018-07-24T15:43:05.501Z,100617.83
2018-07-24T15:45:10.944Z,100624.40
2018-07-24T15:47:15.672Z,100625.97
2018-07-24T15:49:20.440Z,100615.36
2018-07-24T15:51:25.801Z,100623.58
2018-07-24T15:53:30.676Z,100622.23
2018-07-24T15:55:35.410Z,100614.73
2018-07-24T15:57:40.287Z,100624.63
2018-07-24T15:59:45.123Z,100624.05
2018-07-24T16:01:49.970Z,100612.30
2018-07-24T16:03:54.815Z,100618.33
2018-07-24T16:05:59.788Z,100614.48
2018-07-24T16:08:04.668Z,100619.28
2018-07-24T16:10:09.623Z,100615.47
2018-07-24T16:12:14.479Z,100618.50
2018-07-24T16:14:19.295Z,100619.36
2018-07-24T16:16:24.305Z,100618.42
2018-07-24T16:18:29.180Z,100610.61
2018-07-24T16:20:33.890Z,100616.59
2018-07-24T16:22:38.797Z,100622.02
2018-07-24T16:24:43.741Z,100613.30
2018-07-24T16:26:49.331Z,100612.59
2018-07-24T16:28:54.553Z,100607.28
2018-07-24T16:33:11.057Z,100609.63
2018-07-24T16:35:16.044Z,100606.35
2018-07-24T16:37:21.414Z,100611.82
2018-07-24T16:39:26.388Z,100613.30
2018-07-24T16:41:31.321Z,100615.41
2018-07-24T16:43:36.149Z,100609.75
2018-07-24T16:45:41.269Z,100606.45
2018-07-24T16:47:46.224Z,100610.29
2018-07-24T16:49:51.146Z,100611.75
2018-07-24T16:51:56.197Z,100612.85
2018-07-24T16:54:01.129Z,100591.17
2018-07-24T16:56:05.816Z,100605.08
2018-07-24T16:58:17.023Z,100607.91
2018-07-24T17:00:22.087Z,100607.29
2018-07-24T17:02:27.265Z,100605.30
2018-07-24T17:04:32.427Z,100599.73
2018-07-24T17:06:38.239Z,100602.63
2018-07-24T17:08:44.077Z,100607.45
2018-07-24T17:10:48.957Z,100601.12
2018-07-24T17:12:53.978Z,100596.22
2018-07-24T17:14:59.000Z,100602.64
2018-07-24T17:17:04.302Z,100594.94
2018-07-24T17:19:09.217Z,100597.89
2018-07-24T17:21:14.123Z,100598.56
2018-07-24T17:23:20.082Z,100592.19
2018-07-24T17:25:25.278Z,100601.50
2018-07-24T17:27:30.108Z,100605.09
2018-07-24T17:29:34.828Z,100595.03
2018-07-24T17:31:39.574Z,100593.36
2018-07-24T17:33:45.158Z,100593.83
2018-07-24T17:35:49.985Z,100585.08
2018-07-24T17:37:54.855Z,100597.19
2018-07-24T17:39:59.686Z,100599.72
2018-07-24T17:42:04.456Z,100592.07
2018-07-24T17:44:09.301Z,100600.66
2018-07-24T17:46:15.135Z,100600.31
2018-07-24T17:48:20.041Z,100603.19
2018-07-24T17:50:26.231Z,100601.24
2018-07-24T17:52:32.859Z,100599.42
2018-07-24T17:54:39.461Z,100605.95
2018-07-24T17:56:45.199Z,100606.35
2018-07-24T17:58:51.379Z,100609.00
2018-07-24T18:00:56.381Z,100604.21
2018-07-24T18:03:01.640Z,100602.08
2018-07-24T18:05:07.061Z,100606.14
2018-07-24T18:07:11.958Z,100608.11
2018-07-24T18:09:16.866Z,100606.39
2018-07-24T18:11:23.044Z,100604.08
2018-07-24T18:13:28.092Z,100602.79
2018-07-24T18:15:34.335Z,100607.45
2018-07-24T18:17:41.675Z,100603.11
2018-07-24T18:19:47.186Z,100592.41
2018-07-24T18:21:52.119Z,100596.63
2018-07-24T18:23:56.943Z,100598.34
2018-07-24T18:26:01.901Z,100604.83
2018-07-24T18:28:07.924Z,100604.03
2018-07-24T18:30:12.756Z,100601.85
2018-07-24T18:32:17.594Z,100591.28
2018-07-24T18:34:22.391Z,100602.67
2018-07-24T18:36:27.117Z,100599.45
2018-07-24T18:38:31.887Z,100597.47
2018-07-24T18:40:36.809Z,100599.02
2018-07-24T18:42:41.674Z,100600.34
2018-07-24T18:44:46.631Z,100601.61
2018-07-24T18:46:51.462Z,100605.57
2018-07-24T18:48:58.821Z,100600.84
2018-07-24T18:51:03.756Z,100604.30
2018-07-24T18:53:08.538Z,100600.80
2018-07-24T18:55:13.338Z,100599.22
2018-07-24T18:57:18.149Z,100605.67
2018-07-24T18:59:23.897Z,100603.49
2018-07-24T19:01:32.880Z,100606.89
2018-07-24T19:03:38.958Z,100608.31
2018-07-24T19:05:45.932Z,100610.75
2018-07-24T19:07:55.726Z,100608.27
2018-07-24T19:10:04.507Z,100606.03
2018-07-24T19:12:15.209Z,100610.91
2018-07-24T19:14:24.231Z,100611.26
2018-07-24T19:16:33.956Z,100607.64
2018-07-24T19:18:44.685Z,100611.96
2018-07-24T19:20:54.173Z,100612.61
2018-07-24T19:23:03.720Z,100612.77
2018-07-24T19:25:12.530Z,100621.81
2018-07-24T19:27:22.309Z,100620.18
2018-07-24T19:29:31.116Z,100618.36
2018-07-24T19:31:38.726Z,100620.27
2018-07-24T19:33:47.830Z,100616.28
2018-07-24T19:35:58.947Z,100617.06
2018-07-24T19:38:08.926Z,100622.70
2018-07-24T19:40:19.037Z,100618.56
2018-07-24T19:42:29.588Z,100625.48
2018-07-24T19:44:40.074Z,100624.78
2018-07-24T19:46:53.233Z,100626.03
2018-07-24T19:49:03.216Z,100628.91
2018-07-24T19:51:11.231Z,100632.16
2018-07-24T19:53:17.331Z,100638.09
2018-07-24T19:55:30.406Z,100636.03
2018-07-24T19:57:36.506Z,100645.42
2018-07-24T19:59:42.416Z,100646.08
2018-07-24T20:01:47.460Z,100642.66
2018-07-24T20:03:52.644Z,100643.11
2018-07-24T20:05:57.883Z,100648.97
2018-07-24T20:08:03.225Z,100652.55
2018-07-24T20:10:12.425Z,100652.02
2018-07-24T20:12:18.143Z,100651.73
2018-07-24T20:14:27.470Z,100651.36
2018-07-24T20:16:36.166Z,100654.12
2018-07-24T20:18:41.967Z,100660.38
2018-07-24T20:20:46.690Z,100653.09
2018-07-24T20:22:52.424Z,100651.52
2018-07-24T20:24:59.589Z,100653.50
2018-07-24T20:27:09.683Z,100657.95
2018-07-24T20:29:17.339Z,100659.38
2018-07-24T20:31:25.459Z,100663.83
2018-07-24T20:33:34.862Z,100660.33
2018-07-24T20:35:43.337Z,100666.88
2018-07-24T20:37:52.109Z,100661.64
2018-07-24T20:40:02.032Z,100660.36
2018-07-24T20:42:11.315Z,100660.52
2018-07-24T20:44:21.692Z,100657.09
2018-07-24T20:46:31.261Z,100659.84
2018-07-24T20:48:39.209Z,100655.14
2018-07-24T20:50:44.240Z,100659.61
2018-07-24T20:52:49.419Z,100657.05
2018-07-24T20:54:54.982Z,100654.95
2018-07-24T20:57:00.075Z,100666.88
2018-07-24T20:59:04.896Z,100653.44
2018-07-24T21:01:10.028Z,100661.71
2018-07-24T21:03:15.065Z,100663.21
2018-07-24T21:05:19.926Z,100660.30
2018-07-24T21:07:24.929Z,100659.06
2018-07-24T21:09:29.987Z,100656.98
2018-07-24T21:11:34.830Z,100654.45
2018-07-24T21:13:40.314Z,100661.52
2018-07-24T21:15:45.277Z,100662.45
2018-07-24T21:17:50.125Z,100660.30
2018-07-24T21:19:55.132Z,100659.53
2018-07-24T21:22:00.131Z,100660.85
2018-07-24T21:24:05.106Z,100665.73
2018-07-24T21:26:11.123Z,100666.43
2018-07-24T21:28:16.105Z,100667.02
2018-07-24T21:30:21.045Z,100663.20
2018-07-24T21:32:26.080Z,100667.21
2018-07-24T21:34:30.982Z,100666.38
2018-07-24T21:36:37.789Z,100662.53
2018-07-24T21:38:42.749Z,100665.23
2018-07-24T21:40:47.537Z,100666.12
2018-07-24T21:42:52.689Z,100669.33
2018-07-24T21:44:57.721Z,100681.94
2018-07-24T21:47:02.570Z,100681.91
2018-07-24T21:49:07.570Z,100680.34
2018-07-24T21:51:12.486Z,100681.75
2018-07-24T21:53:17.565Z,100671.64
2018-07-24T21:55:22.815Z,100683.88
2018-07-24T21:57:28.074Z,100689.62
2018-07-24T21:59:33.346Z,100685.17
2018-07-24T22:01:38.454Z,100685.82
2018-07-24T22:03:43.796Z,100688.19
2018-07-24T22:05:48.476Z,100688.39
2018-07-24T22:07:53.623Z,100686.06
2018-07-24T22:09:58.469Z,100688.94
2018-07-24T22:12:03.172Z,100686.86
2018-07-24T22:14:07.977Z,100686.12
2018-07-24T22:16:12.855Z,100688.84
2018-07-24T22:18:17.963Z,100691.37
2018-07-24T22:20:23.324Z,100691.25
2018-07-24T22:22:28.275Z,100695.69
2018-07-24T22:24:33.172Z,100698.46
2018-07-24T22:26:38.085Z,100692.30
2018-07-24T22:28:43.000Z,100696.35
2018-07-24T22:30:47.911Z,100694.20
2018-07-24T22:32:52.791Z,100696.05
2018-07-24T22:34:57.541Z,100696.05
2018-07-24T22:37:02.409Z,100694.41
2018-07-24T22:39:10.861Z,100691.89
2018-07-24T22:41:15.922Z,100688.50
2018-07-24T22:43:20.787Z,100689.89
2018-07-24T22:45:25.630Z,100696.01
2018-07-24T22:47:31.390Z,100687.67
2018-07-24T22:49:36.258Z,100694.30
2018-07-24T22:51:40.976Z,100693.94
2018-07-24T22:53:45.724Z,100690.48
2018-07-24T22:55:50.393Z,100686.12
2018-07-24T22:57:55.248Z,100696.25
2018-07-24T23:00:00.081Z,100702.02
2018-07-24T23:02:04.953Z,100702.06
2018-07-24T23:04:09.718Z,100706.05
2018-07-24T23:06:14.758Z,100704.23
2018-07-24T23:08:19.519Z,100702.55
2018-07-24T23:10:28.341Z,100699.08
2018-07-24T23:12:33.202Z,100703.92
2018-07-24T23:14:38.220Z,100703.48
2018-07-24T23:16:43.797Z,100696.44
2018-07-24T23:18:48.594Z,100699.06
2018-07-24T23:20:53.343Z,100699.55
2018-07-24T23:22:58.433Z,100693.58
2018-07-24T23:25:03.207Z,100694.53
2018-07-24T23:27:07.907Z,100697.97
2018-07-24T23:29:12.633Z,100693.23
2018-07-24T23:31:17.439Z,100694.62
2018-07-24T23:33:22.284Z,100689.34
2018-07-24T23:35:27.057Z,100694.62
2018-07-24T23:37:31.912Z,100691.16
2018-07-24T23:39:36.634Z,100689.83
2018-07-24T23:41:41.392Z,100692.47
2018-07-24T23:43:46.059Z,100696.81
2018-07-24T23:45:50.829Z,100690.30
2018-07-24T23:47:55.666Z,100702.54
2018-07-24T23:50:00.488Z,100691.03
2018-07-24T23:52:06.131Z,100692.84